Webcam  Webcam


Lyn radar more information blitzortung!


Regn radar more information rain snow radar



Lokal METAR Rapport

   
EHVK - Volkel Rnlafb, Netherlands
Afstand fra station: SV 18 km
Opdateret: 30-11-2021 22:39
Let tåge, Overskyet  
Let tåge, Overskyet  
   Vind: SV 6.7 m/s
Vind: SV 6.7 m/s
Temperatur: 9°C
Kuldeindeks: 6°C
Dugpunkt: 9°C
Luftfugtighed: 100%
Barometer: 1004 hPa
Skyet: Overskyet
Sigtbarhed: 7 km
Sky detaljer: Delvis skyet 600 ft,
mest skyet 700 ft,
Overskyet 800 ft
EHVK 302139Z AUTO 22013KT 190V260 7000 BR SCT006 BKN007 OVC008 09/09 Q1004 YLO
EDLV - Niederrhein, Germany
Afstand fra station: SØ 25 km
Opdateret: 30-11-2021 22:20
mest skyet  
mest skyet  
   Vind: SV 5.1 m/s
Vind: SV 5.1 m/s
Temperatur: 10°C
Kuldeindeks: 8°C
Dugpunkt: 9°C
Luftfugtighed: 94%
Barometer: 1005 hPa
Skyet: mest skyet
Sigtbarhed: mere end 10 km
Sky detaljer: mest skyet 600 ft
EDLV 302120Z 23010KT 9999 BKN006 10/09 Q1005
EHDL - Deelen Rnlafb, Netherlands
Afstand fra station: N 35 km
Opdateret: 30-11-2021 22:25
Let tåge, Overskyet  
Let tåge, Overskyet  
   Vind: VSV 5.7 m/s
Vind: VSV 5.7 m/s
Temperatur: 9°C
Kuldeindeks: 6°C
Dugpunkt: 9°C
Luftfugtighed: 100%
Barometer: 1003 hPa
Skyet: Overskyet
Sigtbarhed: 6 km
Sky detaljer: mest skyet 300 ft,
Overskyet 500 ft
EHDL 302125Z AUTO 24011KT 160V310 6000 BR BKN003 OVC005 09/09 Q1003 YLO
EHEH - Eindhoven Rnlafb, Netherlands
Afstand fra station: SV 48 km
Opdateret: 30-11-2021 22:35
Overskyet  
Overskyet  
   Vind: SV 6.2 m/s
Vind: SV 6.2 m/s
Temperatur: 10°C
Kuldeindeks: 7°C
Dugpunkt: 9°C
Luftfugtighed: 94%
Barometer: 1005 hPa
Skyet: Overskyet
Sigtbarhed: mere end 10 km
Sky detaljer: Let Skyet 700 ft,
mest skyet 900 ft,
Overskyet 1000 ft
EHEH 302135Z AUTO 22012KT 180V260 9999 FEW007 BKN009 OVC010 10/09 Q1005 GRN
EHGR - Gilze-Rijen Rnla, Netherlands
Afstand fra station: VSV 70 km
Opdateret: 30-11-2021 22:25
Overskyet  
Overskyet  
   Vind: SV 5.1 m/s
Vind: SV 5.1 m/s
Temperatur: 10°C
Kuldeindeks: 8°C
Dugpunkt: 9°C
Luftfugtighed: 94%
Barometer: 1005 hPa
Skyet: Overskyet
Sigtbarhed: mere end 10 km
Sky detaljer: Delvis skyet 1000 ft,
mest skyet 1200 ft,
Overskyet 1500 ft
EHGR 302125Z AUTO 23010KT 200V270 9999 SCT010 BKN012 OVC015 10/09 Q1005 GRN
EBBL - Kleine-Brogel(Ba, Belgium
Afstand fra station: SSV 71 km
Opdateret: 30-11-2021 22:25
Overskyet  
Overskyet  
   Vind: SV 7.2 m/s
Vind: SV 7.2 m/s
Temperatur: 10°C
Kuldeindeks: 7°C
Dugpunkt: 9°C
Luftfugtighed: 94%
Barometer: 1005 hPa
Skyet: Overskyet
Sigtbarhed: 5 km
Sky detaljer: Overskyet 1000 ft
EBBL 302125Z AUTO 23014KT 5000 OVC010/// 10/09 Q1005 GRN

Script udviklet af  Saratoga-weather.org Tilpasset til denne template af  Weerstation Leuven

Du finder også vores vejrinformationer på:

UK Metoffice

European Weather Network

WeatherCloud

Weather Underground

AWEKAS

Citizen Weather Observer Program (CWOP)

HAMweather, WeatherForYou, PWS Weather

Udstyr som vi anvender:

Vejrstation
Davis VP2

Vejrprogram
Meteobridge

Vejrserver
Meteobridge Pro

Davis VP2

Meteobridge

Meteobridge Pro